Time;durP1;ratioP1;P1;durP2;ratioP2;P2;SDS_P1;SDS_P2;PMS_P1;PMS_P2;Temp;Humidity;BMP_temperature;BMP_pressure;BME280_temperature;BME280_humidity;BME280_pressure;Samples;Min_cycle;Max_cycle;Signal;HPM_P1;HPM_P2
2021/08/30 00:01:04;;;;;;;3.10;1.90;;;16.90;66.30;;;;;;5110584;28;20035;-54
2021/08/30 00:03:31;;;;;;;3.15;2.10;;;17.00;68.10;;;;;;5101455;28;20308;-66
2021/08/30 00:05:59;;;;;;;2.55;1.88;;;17.00;66.90;;;;;;5093719;28;20106;-68
2021/08/30 00:08:26;;;;;;;4.20;2.17;;;17.20;65.60;;;;;;5111384;28;20069;-60
2021/08/30 00:10:53;;;;;;;2.58;1.73;;;17.30;65.10;;;;;;5110665;28;20462;-64
2021/08/30 00:13:21;;;;;;;2.45;1.52;;;17.20;65.70;;;;;;5104731;28;20430;-63
2021/08/30 00:15:48;;;;;;;2.70;1.55;;;17.30;66.40;;;;;;5098252;28;20043;-63
2021/08/30 00:18:16;;;;;;;3.15;1.80;;;17.30;65.90;;;;;;5102674;28;20062;-69
2021/08/30 00:20:43;;;;;;;1.98;1.38;;;17.30;65.30;;;;;;5087412;28;20046;-64
2021/08/30 00:23:10;;;;;;;4.35;2.20;;;17.40;64.30;;;;;;5099471;28;20015;-65
2021/08/30 00:25:38;;;;;;;4.32;1.70;;;17.50;65.80;;;;;;5106816;28;20075;-59
2021/08/30 00:28:05;;;;;;;4.50;1.95;;;17.50;64.00;;;;;;5106656;28;20019;-64
2021/08/30 00:30:33;;;;;;;5.15;1.77;;;17.60;63.90;;;;;;5105149;28;20019;-64
2021/08/30 00:33:00;;;;;;;4.35;2.15;;;17.60;66.10;;;;;;5100405;28;20031;-63
2021/08/30 00:35:28;;;;;;;4.40;2.05;;;17.60;64.20;;;;;;5102317;28;20513;-63
2021/08/30 00:37:55;;;;;;;3.20;1.98;;;17.70;65.20;;;;;;5107868;28;20036;-61
2021/08/30 00:40:23;;;;;;;3.50;1.70;;;17.70;65.90;;;;;;5098741;28;20509;-65
2021/08/30 00:42:50;;;;;;;4.38;1.83;;;17.80;63.10;;;;;;5099930;28;20165;-63
2021/08/30 00:45:21;;;;;;;3.58;1.58;;;17.90;63.80;;;;;;5106235;28;20099;-61
2021/08/30 00:47:52;;;;;;;4.28;1.67;;;17.90;65.30;;;;;;5088993;28;20032;-63
2021/08/30 00:50:19;;;;;;;8.85;1.40;;;17.90;64.60;;;;;;5106532;28;20031;-63
2021/08/30 00:52:47;;;;;;;2.15;1.70;;;18.10;64.10;;;;;;5085994;28;20111;-64
2021/08/30 00:55:16;;;;;;;3.35;1.90;;;18.00;65.70;;;;;;5110345;28;20062;-63
2021/08/30 00:57:43;;;;;;;6.32;1.77;;;18.10;63.10;;;;;;5109968;28;20055;-63
2021/08/30 01:00:14;;;;;;;4.60;1.45;;;18.10;65.20;;;;;;5104638;28;20050;-62
2021/08/30 01:02:42;;;;;;;2.88;1.65;;;18.10;62.70;;;;;;5099399;28;20046;-60
2021/08/30 01:05:13;;;;;;;2.70;1.63;;;18.30;61.60;;;;;;5109616;28;20060;-62
2021/08/30 01:08:08;;;;;;;3.72;1.80;;;18.30;64.70;;;;;;5102119;28;20081;-61
2021/08/30 01:11:14;;;;;;;4.22;1.50;;;18.20;65.50;;;;;;5103131;28;20031;-61
2021/08/30 01:13:51;;;;;;;1.95;1.40;;;18.40;62.10;;;;;;4999490;28;20029;-63
2021/08/30 01:16:21;;;;;;;2.70;1.45;;;18.50;62.30;;;;;;5085993;28;20115;-63
2021/08/30 01:18:51;;;;;;;2.50;1.02;;;18.50;64.50;;;;;;5091866;28;20028;-60
2021/08/30 01:21:26;;;;;;;2.05;1.38;;;18.60;62.60;;;;;;5108873;28;20039;-64
2021/08/30 01:24:12;;;;;;;2.58;1.25;;;18.60;62.60;;;;;;5102552;28;20117;-61
2021/08/30 01:26:54;;;;;;;2.35;1.45;;;18.60;64.70;;;;;;5109807;28;20024;-61
2021/08/30 01:29:30;;;;;;;1.80;1.33;;;18.70;63.40;;;;;;5110044;28;20685;-64
2021/08/30 01:32:04;;;;;;;2.35;1.50;;;18.70;63.90;;;;;;5110145;28;20043;-61
2021/08/30 01:34:33;;;;;;;2.65;1.50;;;18.80;61.50;;;;;;5110841;28;20051;-64
2021/08/30 01:37:01;;;;;;;2.40;1.42;;;18.90;62.10;;;;;;5110897;28;20143;-65
2021/08/30 01:39:30;;;;;;;2.35;1.23;;;18.80;64.20;;;;;;5110101;28;20027;-63
2021/08/30 01:42:00;;;;;;;3.28;1.88;;;18.90;60.50;;;;;;5110408;28;20055;-65
2021/08/30 01:44:28;;;;;;;3.90;1.40;;;19.00;61.30;;;;;;5091459;28;21179;-68
2021/08/30 01:47:00;;;;;;;2.08;1.50;;;19.00;64.40;;;;;;5110255;28;20144;-65
2021/08/30 01:49:30;;;;;;;9.73;1.13;;;19.00;60.90;;;;;;5110071;28;20104;-67
2021/08/30 01:51:58;;;;;;;1.58;1.20;;;19.20;60.00;;;;;;5110182;28;20412;-66
2021/08/30 01:54:26;;;;;;;4.88;1.38;;;19.10;63.90;;;;;;5109876;28;20035;-66
2021/08/30 01:56:56;;;;;;;4.22;1.20;;;19.20;61.60;;;;;;5109633;28;20047;-64
2021/08/30 02:02:12;;;;;;;3.08;1.20;;;19.20;62.70;;;;;;5110257;28;20181;-63
2021/08/30 02:04:40;;;;;;;1.73;1.10;;;19.30;63.60;;;;;;5091677;28;20030;-65
2021/08/30 02:07:08;;;;;;;2.85;1.20;;;19.40;62.90;;;;;;5109962;28;20402;-63
2021/08/30 02:09:35;;;;;;;2.60;0.95;;;19.40;60.60;;;;;;5109977;28;20032;-62
2021/08/30 02:12:03;;;;;;;5.35;1.63;;;19.50;59.00;;;;;;5110013;28;20103;-61
2021/08/30 02:14:30;;;;;;;1.42;0.75;;;19.40;63.40;;;;;;5108894;28;20474;-59
2021/08/30 02:17:05;;;;;;;2.33;1.20;;;19.60;59.30;;;;;;5109965;28;20031;-61
2021/08/30 02:19:55;;;;;;;4.43;1.35;;;19.60;60.40;;;;;;5109606;28;20084;-66
2021/08/30 02:22:34;;;;;;;1.92;1.33;;;19.70;59.90;;;;;;5109675;28;20042;-65
2021/08/30 02:25:10;;;;;;;3.42;1.00;;;19.70;59.60;;;;;;5109516;28;20056;-62
2021/08/30 02:27:57;;;;;;;1.85;1.00;;;19.70;62.50;;;;;;5109491;28;20036;-64
2021/08/30 02:30:27;;;;;;;2.95;0.95;;;19.70;63.40;;;;;;5108796;28;20036;-63
2021/08/30 02:32:59;;;;;;;4.80;1.70;;;19.70;63.20;;;;;;5109296;28;20077;-66
2021/08/30 02:35:31;;;;;;;4.57;1.17;;;19.80;61.10;;;;;;5109502;28;20023;-64
2021/08/30 02:38:01;;;;;;;4.47;1.23;;;19.80;63.10;;;;;;5109556;28;20088;-63
2021/08/30 02:40:29;;;;;;;4.88;1.30;;;19.80;59.80;;;;;;5108380;28;20046;-64
2021/08/30 02:43:02;;;;;;;1.38;1.08;;;19.80;62.10;;;;;;5109312;28;20080;-62
2021/08/30 02:45:36;;;;;;;2.10;1.40;;;19.80;62.20;;;;;;5108973;28;20024;-59
2021/08/30 02:48:04;;;;;;;6.03;1.25;;;19.90;59.80;;;;;;5109955;28;20023;-63
2021/08/30 02:50:33;;;;;;;5.40;1.10;;;20.00;59.90;;;;;;5109384;27;20076;-65
2021/08/30 02:53:01;;;;;;;2.05;1.15;;;20.10;60.50;;;;;;5109075;28;20038;-64
2021/08/30 02:55:29;;;;;;;1.08;0.80;;;20.10;59.60;;;;;;5109111;28;20111;-63
2021/08/30 02:58:01;;;;;;;5.20;1.13;;;20.10;59.80;;;;;;5109760;28;20050;-62
2021/08/30 03:00:28;;;;;;;3.88;1.00;;;20.00;61.40;;;;;;5108288;28;20110;-68
2021/08/30 03:02:56;;;;;;;1.42;0.90;;;20.20;58.60;;;;;;5108740;28;20398;-62
2021/08/30 03:05:24;;;;;;;3.08;1.00;;;20.00;63.30;;;;;;5108522;28;20023;-63
2021/08/30 03:07:52;;;;;;;0.93;0.80;;;20.00;63.30;;;;;;5108794;28;20055;-62
2021/08/30 03:10:19;;;;;;;1.45;0.85;;;20.10;61.00;;;;;;5108651;28;20423;-68
2021/08/30 03:12:53;;;;;;;2.40;1.08;;;20.20;61.60;;;;;;5093845;28;20439;-64
2021/08/30 03:15:23;;;;;;;1.85;1.02;;;20.10;59.60;;;;;;5088401;28;20016;-64
2021/08/30 03:17:52;;;;;;;3.47;0.98;;;20.20;59.30;;;;;;5092880;28;20081;-68
2021/08/30 03:20:24;;;;;;;4.95;0.98;;;20.20;62.00;;;;;;5074547;28;20024;-64
2021/08/30 03:22:52;;;;;;;3.15;0.98;;;20.20;60.90;;;;;;5092743;28;20059;-62
2021/08/30 03:25:23;;;;;;;1.42;0.93;;;20.30;61.40;;;;;;5074441;28;20034;-64
2021/08/30 03:27:51;;;;;;;1.83;0.80;;;20.20;62.70;;;;;;5092534;28;20484;-65
2021/08/30 03:30:19;;;;;;;2.97;0.68;;;20.20;62.60;;;;;;5074360;28;20028;-63
2021/08/30 03:32:48;;;;;;;2.00;0.98;;;20.20;62.10;;;;;;5092365;28;20031;-60
2021/08/30 03:35:16;;;;;;;1.75;0.73;;;20.40;59.10;;;;;;5092338;28;20024;-63
2021/08/30 03:37:45;;;;;;;0.90;0.70;;;20.50;56.20;;;;;;5074633;28;20064;-62
2021/08/30 03:40:14;;;;;;;1.83;0.90;;;20.50;58.50;;;;;;5092348;28;20127;-64
2021/08/30 03:42:42;;;;;;;0.65;0.60;;;20.40;61.50;;;;;;5089635;28;20035;-67
2021/08/30 03:45:15;;;;;;;1.67;0.90;;;20.40;61.70;;;;;;5105332;28;20020;-72
2021/08/30 03:47:43;;;;;;;1.77;0.90;;;20.40;58.40;;;;;;5108460;28;20031;-67
2021/08/30 03:50:13;;;;;;;1.42;0.70;;;20.40;60.90;;;;;;5091237;28;20026;-67
2021/08/30 03:52:42;;;;;;;1.40;0.90;;;20.40;58.00;;;;;;5102437;28;20027;-70
2021/08/30 03:55:11;;;;;;;2.15;1.10;;;20.40;62.50;;;;;;5109878;28;20072;-63
2021/08/30 03:57:39;;;;;;;2.03;0.80;;;20.30;58.90;;;;;;5103160;28;20030;-66
2021/08/30 04:00:08;;;;;;;2.40;1.02;;;20.40;60.80;;;;;;5111671;28;20047;-61
2021/08/30 04:02:40;;;;;;;2.15;1.20;;;20.50;58.20;;;;;;5109106;28;20444;-61
2021/08/30 04:05:09;;;;;;;2.97;1.27;;;20.60;57.30;;;;;;5110117;28;20032;-63
2021/08/30 04:07:37;;;;;;;1.88;0.70;;;20.60;58.80;;;;;;5107054;28;20476;-67
2021/08/30 04:10:05;;;;;;;1.35;0.70;;;20.60;59.40;;;;;;5108462;28;20020;-63
2021/08/30 04:12:33;;;;;;;3.35;0.93;;;20.60;58.20;;;;;;5109952;28;20058;-60
2021/08/30 04:15:03;;;;;;;1.40;0.70;;;20.70;57.90;;;;;;5112536;28;20031;-63
2021/08/30 04:17:31;;;;;;;2.00;0.70;;;20.80;58.00;;;;;;5084028;28;20027;-56
2021/08/30 04:19:58;;;;;;;1.35;0.75;;;20.80;58.10;;;;;;5112199;28;20374;-61
2021/08/30 04:22:26;;;;;;;2.95;0.85;;;20.70;57.40;;;;;;5111670;28;20039;-68
2021/08/30 04:24:53;;;;;;;1.85;0.60;;;20.60;61.70;;;;;;5116076;28;20054;-63
2021/08/30 04:27:21;;;;;;;1.20;0.55;;;20.60;59.70;;;;;;5109838;28;20076;-65
2021/08/30 04:29:48;;;;;;;2.83;1.00;;;20.60;62.30;;;;;;5114949;28;20031;-67
2021/08/30 04:32:16;;;;;;;0.85;0.63;;;20.50;60.70;;;;;;5115350;28;20024;-67
2021/08/30 04:34:43;;;;;;;4.45;0.93;;;20.50;62.30;;;;;;5115209;28;20466;-69
2021/08/30 04:37:11;;;;;;;1.30;0.75;;;20.70;60.10;;;;;;5104201;28;20028;-64
2021/08/30 04:39:38;;;;;;;1.50;0.82;;;20.70;61.80;;;;;;5115807;28;20373;-62
2021/08/30 04:42:06;;;;;;;1.63;0.70;;;20.80;59.60;;;;;;5088716;28;20056;-65
2021/08/30 04:44:34;;;;;;;1.15;0.60;;;20.80;62.40;;;;;;5093904;28;20032;-70
2021/08/30 04:47:02;;;;;;;1.20;0.90;;;20.90;59.90;;;;;;5084659;28;20020;-68
2021/08/30 04:49:29;;;;;;;0.70;0.50;;;21.00;59.70;;;;;;5095114;28;20526;-63
2021/08/30 04:51:57;;;;;;;0.75;0.50;;;20.80;62.20;;;;;;5092851;28;20062;-65
2021/08/30 04:54:24;;;;;;;2.38;0.70;;;20.80;61.90;;;;;;5089735;28;20074;-64
2021/08/30 04:56:51;;;;;;;2.40;1.17;;;21.00;57.50;;;;;;5090255;28;20019;-69
2021/08/30 04:59:19;;;;;;;1.60;0.82;;;21.00;58.90;;;;;;5089968;28;20031;-62
2021/08/30 05:01:46;;;;;;;5.53;1.40;;;20.90;59.30;;;;;;5097873;28;20036;-64
2021/08/30 05:04:13;;;;;;;1.50;0.60;;;20.90;58.50;;;;;;5085727;28;20107;-69
2021/08/30 05:06:41;;;;;;;2.40;0.73;;;20.70;59.60;;;;;;5086744;28;20081;-64
2021/08/30 05:09:08;;;;;;;2.67;0.70;;;20.60;58.20;;;;;;5094127;28;20382;-61
2021/08/30 05:11:39;;;;;;;3.22;0.90;;;20.50;58.50;;;;;;5093612;28;20027;-66
2021/08/30 05:14:07;;;;;;;1.35;0.70;;;20.50;60.60;;;;;;5089661;28;20055;-67
2021/08/30 05:16:34;;;;;;;0.88;0.43;;;20.40;60.00;;;;;;5085466;28;20020;-64
2021/08/30 05:19:02;;;;;;;0.90;0.60;;;20.30;62.20;;;;;;5094293;28;20050;-66
2021/08/30 05:21:29;;;;;;;1.80;0.60;;;20.20;60.80;;;;;;5093142;28;20112;-63
2021/08/30 05:23:56;;;;;;;1.52;0.55;;;20.20;62.50;;;;;;5085538;28;20457;-65
2021/08/30 05:26:26;;;;;;;1.45;0.65;;;20.00;61.60;;;;;;5083613;28;20424;-65
2021/08/30 05:28:54;;;;;;;1.70;0.93;;;20.00;63.40;;;;;;5089395;28;20051;-71
2021/08/30 05:31:21;;;;;;;1.58;0.68;;;19.90;60.80;;;;;;5093925;28;20383;-66
2021/08/30 05:33:48;;;;;;;1.52;0.70;;;19.80;61.90;;;;;;5079973;28;20140;-67
2021/08/30 05:36:16;;;;;;;2.53;0.52;;;19.80;63.10;;;;;;5094745;28;20031;-70
2021/08/30 05:38:43;;;;;;;3.30;0.93;;;19.70;63.70;;;;;;5094779;28;20024;-73
2021/08/30 05:41:11;;;;;;;3.58;1.27;;;19.50;62.90;;;;;;5104266;28;20047;-66
2021/08/30 05:43:38;;;;;;;1.48;0.60;;;19.50;63.00;;;;;;5115367;28;20024;-72
2021/08/30 05:46:05;;;;;;;2.83;0.60;;;19.40;62.90;;;;;;5115481;28;20084;-70
2021/08/30 05:48:33;;;;;;;2.22;0.60;;;19.30;63.60;;;;;;5114490;28;20053;-69
2021/08/30 05:51:00;;;;;;;1.88;0.52;;;19.30;62.30;;;;;;5115592;28;20104;-68
2021/08/30 05:53:28;;;;;;;1.88;0.60;;;19.20;65.10;;;;;;5114990;28;20050;-70
2021/08/30 05:55:55;;;;;;;1.27;0.65;;;19.10;64.50;;;;;;5115061;28;20032;-69
2021/08/30 05:58:22;;;;;;;1.83;0.55;;;19.10;64.80;;;;;;5115489;28;20035;-67
2021/08/30 06:00:50;;;;;;;1.23;0.90;;;18.90;66.80;;;;;;5114806;28;20032;-62
2021/08/30 06:03:20;;;;;;;1.25;0.52;;;18.80;65.60;;;;;;5114756;28;20028;-61
2021/08/30 06:05:47;;;;;;;1.50;0.70;;;18.70;66.60;;;;;;5115567;28;20077;-74
2021/08/30 06:08:18;;;;;;;2.72;0.80;;;18.70;67.00;;;;;;5115423;28;20027;-66
2021/08/30 06:10:46;;;;;;;1.52;0.65;;;18.60;68.80;;;;;;5097056;28;20374;-67
2021/08/30 06:13:14;;;;;;;1.00;0.40;;;18.60;68.20;;;;;;5114760;28;20428;-67
2021/08/30 06:15:42;;;;;;;3.05;1.00;;;18.50;69.80;;;;;;5115024;28;20019;-72
2021/08/30 06:18:09;;;;;;;2.50;0.70;;;18.40;69.70;;;;;;5115289;28;20059;-66
2021/08/30 06:20:37;;;;;;;2.45;0.63;;;18.40;66.50;;;;;;5096625;28;20370;-71
2021/08/30 06:23:05;;;;;;;0.70;0.45;;;18.40;68.90;;;;;;5114905;28;20024;-67
2021/08/30 06:25:32;;;;;;;0.77;0.40;;;18.40;69.40;;;;;;5114867;28;20107;-64
2021/08/30 06:28:00;;;;;;;0.70;0.50;;;18.30;70.40;;;;;;5115097;28;20063;-67
2021/08/30 06:30:28;;;;;;;2.13;0.50;;;18.30;70.40;;;;;;5114813;28;20024;-70
2021/08/30 06:32:55;;;;;;;0.73;0.50;;;18.20;70.70;;;;;;5114943;28;20047;-66
2021/08/30 06:35:24;;;;;;;1.88;0.52;;;18.20;70.90;;;;;;5114817;28;20345;-63
2021/08/30 06:37:55;;;;;;;1.85;0.73;;;18.20;68.30;;;;;;5114868;28;20102;-59
2021/08/30 06:40:23;;;;;;;1.42;0.50;;;18.20;69.00;;;;;;5083707;28;20028;-66
2021/08/30 06:42:52;;;;;;;2.25;0.93;;;18.20;68.80;;;;;;5109298;28;20126;-58
2021/08/30 06:45:22;;;;;;;1.25;0.93;;;18.20;68.30;;;;;;5112413;28;20138;-63
2021/08/30 06:47:51;;;;;;;0.60;0.50;;;18.20;68.80;;;;;;5112725;28;20050;-66
2021/08/30 06:50:19;;;;;;;1.60;0.68;;;18.20;69.10;;;;;;5108847;28;20016;-66
2021/08/30 06:52:46;;;;;;;2.00;0.70;;;18.20;69.90;;;;;;5102186;28;20031;-70
2021/08/30 06:55:14;;;;;;;1.60;0.80;;;18.20;69.90;;;;;;5112563;28;20023;-63
2021/08/30 06:57:41;;;;;;;0.40;0.30;;;18.10;68.70;;;;;;5108605;28;20027;-65
2021/08/30 07:00:09;;;;;;;2.15;0.90;;;18.20;70.20;;;;;;5109403;28;20019;-62
2021/08/30 07:02:37;;;;;;;1.10;0.45;;;18.20;70.90;;;;;;5102741;28;20032;-65
2021/08/30 07:05:05;;;;;;;1.65;0.50;;;18.10;70.80;;;;;;5112759;28;20116;-71
2021/08/30 07:07:33;;;;;;;3.35;0.60;;;18.10;70.50;;;;;;5112027;28;20034;-61
2021/08/30 07:10:00;;;;;;;0.75;0.57;;;18.10;70.50;;;;;;5110537;28;20043;-62
2021/08/30 07:12:28;;;;;;;0.73;0.60;;;18.10;69.50;;;;;;5099959;28;20016;-72
2021/08/30 07:14:55;;;;;;;1.23;0.63;;;18.10;71.20;;;;;;5112580;28;20024;-67
2021/08/30 07:17:23;;;;;;;0.80;0.50;;;18.00;70.80;;;;;;5113022;28;20019;-65
2021/08/30 07:20:06;;;;;;;1.63;0.60;;;18.00;71.00;;;;;;5112876;28;20030;-62
2021/08/30 07:22:37;;;;;;;0.43;0.40;;;18.00;71.30;;;;;;5103842;28;20122;-64
2021/08/30 07:25:07;;;;;;;0.90;0.55;;;17.90;72.10;;;;;;5112572;28;20065;-55
2021/08/30 07:27:39;;;;;;;1.30;0.90;;;17.90;71.70;;;;;;5111551;28;20382;-64
2021/08/30 07:30:12;;;;;;;1.23;0.53;;;17.90;70.10;;;;;;5089755;28;20484;-55
2021/08/30 07:32:39;;;;;;;1.85;0.43;;;17.90;69.00;;;;;;5102817;28;20097;-67
2021/08/30 07:35:07;;;;;;;1.42;0.60;;;17.90;70.90;;;;;;5113350;28;20024;-71
2021/08/30 07:37:38;;;;;;;1.52;0.50;;;17.90;72.20;;;;;;5112681;28;20027;-64
2021/08/30 07:40:06;;;;;;;0.90;0.55;;;17.80;71.50;;;;;;5110672;28;20023;-63
2021/08/30 07:42:42;;;;;;;3.15;0.85;;;17.80;72.50;;;;;;5099494;28;20081;-58
2021/08/30 07:45:15;;;;;;;1.73;0.50;;;17.80;70.20;;;;;;5109249;28;20053;-62
2021/08/30 07:47:43;;;;;;;4.57;0.90;;;17.80;71.80;;;;;;5111877;28;20102;-62
2021/08/30 07:50:12;;;;;;;0.98;0.80;;;17.70;71.90;;;;;;5106565;28;20031;-63
2021/08/30 07:52:42;;;;;;;1.70;0.90;;;17.70;70.40;;;;;;5099273;28;20058;-71
2021/08/30 07:55:13;;;;;;;0.73;0.68;;;17.70;71.50;;;;;;5113338;28;20020;-70
2021/08/30 07:57:41;;;;;;;1.25;0.50;;;17.70;72.00;;;;;;5110794;28;20590;-67
2021/08/30 08:00:09;;;;;;;1.30;0.50;;;17.70;71.50;;;;;;5107098;28;20358;-63
2021/08/30 08:02:37;;;;;;;2.20;0.73;;;17.70;71.40;;;;;;5104790;28;20366;-72
2021/08/30 08:05:05;;;;;;;2.55;0.77;;;17.60;69.80;;;;;;5116522;28;20112;-69
2021/08/30 08:07:32;;;;;;;2.50;0.68;;;17.60;72.40;;;;;;5116659;28;20106;-70
2021/08/30 08:10:00;;;;;;;2.35;0.73;;;17.60;70.60;;;;;;5115927;28;20019;-66
2021/08/30 08:12:30;;;;;;;1.58;0.60;;;17.50;71.40;;;;;;5105225;28;20385;-69
2021/08/30 08:14:58;;;;;;;1.35;0.60;;;17.50;72.40;;;;;;5108430;28;20111;-67
2021/08/30 08:17:26;;;;;;;2.90;0.90;;;17.50;71.20;;;;;;5116136;28;20095;-69
2021/08/30 08:19:53;;;;;;;1.25;0.65;;;17.50;72.70;;;;;;5096869;28;20096;-68
2021/08/30 08:22:20;;;;;;;1.10;0.80;;;17.50;70.30;;;;;;5100796;28;20035;-66
2021/08/30 08:24:54;;;;;;;0.60;0.50;;;17.50;71.10;;;;;;5116007;28;20012;-67
2021/08/30 08:27:22;;;;;;;1.27;0.55;;;17.50;72.80;;;;;;5116076;28;20051;-72
2021/08/30 08:29:49;;;;;;;0.98;0.50;;;17.50;71.70;;;;;;5116201;28;20030;-70
2021/08/30 08:32:20;;;;;;;1.85;0.85;;;17.50;71.90;;;;;;5100393;28;20355;-65
2021/08/30 08:34:48;;;;;;;2.75;0.88;;;17.50;72.80;;;;;;5115190;28;20024;-72
2021/08/30 08:37:15;;;;;;;1.15;0.70;;;17.40;72.00;;;;;;5115907;28;20020;-68
2021/08/30 08:39:46;;;;;;;1.50;0.73;;;17.40;72.20;;;;;;5111579;28;20478;-63
2021/08/30 08:42:13;;;;;;;2.90;0.60;;;17.40;71.90;;;;;;5101230;28;20086;-68
2021/08/30 08:44:41;;;;;;;4.03;0.70;;;17.40;72.40;;;;;;5114165;28;20069;-66
2021/08/30 08:47:12;;;;;;;1.52;0.68;;;17.40;71.90;;;;;;5107548;28;20112;-61
2021/08/30 08:49:43;;;;;;;0.60;0.50;;;17.40;72.50;;;;;;5112572;28;20401;-64
2021/08/30 08:52:14;;;;;;;1.90;0.65;;;17.40;72.80;;;;;;5103337;28;20317;-71
2021/08/30 08:55:03;;;;;;;1.67;0.75;;;17.40;72.50;;;;;;5110901;28;20028;-60
2021/08/30 08:57:41;;;;;;;;;;;;;;;;;;;;;
2021/08/30 09:00:11;;;;;;;2.10;0.63;;;17.30;73.10;;;;;;5113217;28;20036;-66
2021/08/30 09:02:41;;;;;;;1.55;0.82;;;17.40;73.30;;;;;;5106817;28;20039;-62
2021/08/30 09:05:34;;;;;;;2.75;0.88;;;17.30;72.90;;;;;;5109657;28;20020;-64
2021/08/30 09:08:05;;;;;;;1.40;0.70;;;17.30;72.70;;;;;;5107809;28;20019;-59
2021/08/30 09:10:38;;;;;;;1.77;1.00;;;17.30;72.50;;;;;;5112276;28;20020;-61
2021/08/30 09:13:09;;;;;;;1.25;0.77;;;17.20;72.60;;;;;;5110376;28;20039;-62
2021/08/30 09:15:44;;;;;;;3.10;0.80;;;17.20;72.40;;;;;;5112843;28;20019;-60
2021/08/30 09:18:18;;;;;;;1.50;0.80;;;17.20;73.20;;;;;;5112894;28;20019;-70
2021/08/30 09:21:13;;;;;;;1.85;1.08;;;17.20;72.30;;;;;;5103390;28;20100;-61
2021/08/30 09:23:42;;;;;;;1.10;0.70;;;17.20;73.00;;;;;;5081475;28;20394;-69
2021/08/30 09:26:23;;;;;;;1.15;0.60;;;17.20;73.00;;;;;;5111233;28;20028;-72
2021/08/30 09:29:00;;;;;;;1.30;0.52;;;17.20;72.70;;;;;;5113668;28;20042;-70
2021/08/30 09:31:27;;;;;;;0.50;0.50;;;17.20;73.30;;;;;;5103219;28;20026;-65
2021/08/30 09:34:03;;;;;;;1.33;0.55;;;17.20;74.00;;;;;;5110832;28;20431;-69
2021/08/30 09:36:40;;;;;;;1.27;0.60;;;17.20;73.20;;;;;;5115405;28;20102;-70
2021/08/30 09:39:07;;;;;;;1.02;0.50;;;17.20;73.80;;;;;;5115630;28;20016;-76
2021/08/30 09:41:42;;;;;;;2.22;0.65;;;17.20;74.00;;;;;;5102535;28;20051;-66
2021/08/30 09:44:09;;;;;;;1.05;0.47;;;17.20;74.00;;;;;;5114258;28;20020;-65
2021/08/30 09:46:37;;;;;;;2.25;0.90;;;17.20;74.20;;;;;;5114746;28;20028;-68
2021/08/30 09:49:08;;;;;;;5.75;0.80;;;17.20;73.00;;;;;;5114612;28;20028;-70
2021/08/30 09:51:40;;;;;;;2.23;1.00;;;17.20;73.70;;;;;;5100631;28;20020;-70
2021/08/30 09:54:08;;;;;;;0.50;0.50;;;17.20;73.80;;;;;;5113879;28;20505;-70
2021/08/30 09:56:38;;;;;;;1.27;0.55;;;17.10;73.70;;;;;;5114822;28;20111;-72
2021/08/30 09:59:07;;;;;;;1.15;0.50;;;17.10;73.90;;;;;;5114577;28;20016;-73
2021/08/30 10:01:39;;;;;;;0.57;0.57;;;17.20;74.40;;;;;;5103994;28;20037;-70
2021/08/30 10:04:07;;;;;;;;;;;17.10;74.30;;;;;;5112704;28;20421;-69
2021/08/30 10:06:39;;;;;;;1.75;0.70;;;17.10;74.20;;;;;;5111580;28;19903;-67
2021/08/30 10:09:13;;;;;;;1.35;0.50;;;17.10;74.00;;;;;;5115961;28;20446;-68
2021/08/30 10:11:54;;;;;;;1.85;0.70;;;17.10;74.30;;;;;;5107784;28;20385;-67
2021/08/30 10:14:27;;;;;;;6.18;0.65;;;17.10;74.40;;;;;;5113454;28;20019;-65
2021/08/30 10:16:57;;;;;;;1.17;0.60;;;17.10;74.30;;;;;;5094889;28;20183;-67
2021/08/30 10:19:27;;;;;;;1.35;0.70;;;17.10;74.00;;;;;;5095998;28;20054;-69
2021/08/30 10:21:55;;;;;;;1.98;0.80;;;17.10;73.90;;;;;;5103073;28;20031;-70
2021/08/30 10:24:23;;;;;;;1.58;0.80;;;17.10;74.10;;;;;;5109705;28;20024;-70
2021/08/30 10:26:51;;;;;;;1.70;0.90;;;17.00;73.40;;;;;;5113698;28;20019;-68
2021/08/30 10:29:18;;;;;;;1.65;0.93;;;17.00;73.90;;;;;;5113893;28;20504;-65
2021/08/30 10:31:51;;;;;;;3.78;0.82;;;17.00;73.50;;;;;;5098660;28;20023;-66
2021/08/30 10:34:30;;;;;;;0.95;0.60;;;17.10;74.30;;;;;;5113599;28;20114;-72
2021/08/30 10:37:00;;;;;;;2.00;0.88;;;17.00;74.00;;;;;;5112750;28;20021;-60
2021/08/30 10:39:42;;;;;;;1.20;0.60;;;17.10;74.00;;;;;;5090952;28;20031;-60
2021/08/30 10:42:20;;;;;;;1.67;0.70;;;17.00;74.00;;;;;;5101526;28;20849;-66
2021/08/30 10:44:54;;;;;;;1.02;0.65;;;17.00;74.00;;;;;;5091691;28;20024;-66
2021/08/30 10:47:35;;;;;;;1.55;0.60;;;17.00;73.70;;;;;;5112783;28;20020;-61
2021/08/30 10:50:07;;;;;;;1.33;0.68;;;17.00;74.10;;;;;;5112845;28;20020;-65
2021/08/30 10:52:39;;;;;;;2.42;1.15;;;17.00;73.80;;;;;;5105435;28;20028;-66
2021/08/30 10:55:20;;;;;;;2.13;0.65;;;17.00;73.70;;;;;;5108475;28;20034;-69
2021/08/30 10:58:18;;;;;;;1.85;0.88;;;17.00;74.00;;;;;;5113553;28;20382;-65
2021/08/30 11:00:46;;;;;;;2.13;0.95;;;17.00;73.90;;;;;;5106996;28;20035;-63
2021/08/30 11:03:48;;;;;;;3.20;0.88;;;17.00;74.20;;;;;;5109296;28;20035;-65
2021/08/30 11:06:17;;;;;;;4.47;1.00;;;16.90;74.10;;;;;;5101317;28;20386;-69
2021/08/30 11:08:45;;;;;;;1.23;0.60;;;16.90;74.20;;;;;;5112842;28;20040;-66
2021/08/30 11:11:15;;;;;;;3.08;1.10;;;16.90;73.90;;;;;;5103918;28;20906;-62
2021/08/30 11:13:55;;;;;;;1.25;0.75;;;16.90;74.00;;;;;;5112586;28;20084;-68
2021/08/30 11:16:24;;;;;;;1.05;0.80;;;16.90;73.80;;;;;;5108455;28;20024;-67
2021/08/30 11:19:00;;;;;;;1.77;0.95;;;16.90;74.00;;;;;;5108718;28;20039;-68
2021/08/30 11:21:40;;;;;;;1.42;1.10;;;16.90;74.00;;;;;;5100808;28;20043;-69
2021/08/30 11:24:20;;;;;;;1.42;0.88;;;16.90;74.10;;;;;;5112496;28;20099;-72
2021/08/30 11:26:47;;;;;;;2.72;1.13;;;16.90;73.90;;;;;;5112176;28;20024;-64
2021/08/30 11:29:15;;;;;;;2.97;1.08;;;16.80;73.90;;;;;;5112987;28;20071;-69
2021/08/30 11:31:43;;;;;;;1.50;0.85;;;16.80;74.00;;;;;;5102773;28;20023;-69
2021/08/30 11:34:21;;;;;;;0.93;0.80;;;16.80;73.70;;;;;;5111314;28;20023;-68
2021/08/30 11:36:51;;;;;;;2.65;1.20;;;16.80;74.00;;;;;;5090262;28;20023;-68
2021/08/30 11:39:20;;;;;;;0.70;0.70;;;16.80;73.70;;;;;;5108767;28;20064;-66
2021/08/30 11:41:59;;;;;;;2.78;1.00;;;16.80;74.20;;;;;;5101705;28;20040;-66
2021/08/30 11:44:37;;;;;;;1.40;0.90;;;16.80;74.00;;;;;;5103868;28;20551;-65
2021/08/30 11:47:08;;;;;;;2.40;0.98;;;16.80;74.10;;;;;;5111845;28;20435;-65
2021/08/30 11:52:59;;;;;;;2.75;1.15;;;16.80;74.00;;;;;;5078848;28;20474;-64
2021/08/30 11:55:32;;;;;;;1.92;0.90;;;16.80;73.90;;;;;;5108986;28;20028;-70
2021/08/30 11:58:04;;;;;;;1.42;0.90;;;16.80;74.20;;;;;;5112653;28;20028;-64
2021/08/30 12:00:32;;;;;;;1.55;0.90;;;16.80;74.00;;;;;;5113112;28;20069;-67
2021/08/30 12:03:14;;;;;;;1.90;1.02;;;16.80;74.10;;;;;;5106096;28;20036;-64
2021/08/30 12:05:45;;;;;;;3.15;1.13;;;16.70;74.10;;;;;;5108924;28;20024;-64
2021/08/30 12:08:13;;;;;;;2.40;1.15;;;16.70;74.00;;;;;;5107865;28;20118;-64
2021/08/30 12:10:44;;;;;;;1.95;1.30;;;16.70;73.90;;;;;;5108923;28;20026;-64
2021/08/30 12:15:49;;;;;;;1.75;1.08;;;16.70;74.10;;;;;;5108730;28;20019;-66
2021/08/30 12:18:20;;;;;;;1.63;0.90;;;16.70;74.10;;;;;;5111892;28;20028;-62
2021/08/30 12:20:48;;;;;;;2.38;1.10;;;16.70;74.20;;;;;;5102993;28;20054;-63
2021/08/30 12:23:21;;;;;;;1.80;0.90;;;16.70;74.20;;;;;;5105871;28;20027;-67
2021/08/30 12:25:51;;;;;;;7.18;1.10;;;16.70;74.30;;;;;;5112117;28;20024;-65
2021/08/30 12:28:19;;;;;;;2.28;0.93;;;16.70;74.20;;;;;;5107869;28;20036;-61
2021/08/30 12:30:51;;;;;;;2.70;1.23;;;16.60;74.00;;;;;;5107963;28;20023;-64
2021/08/30 12:33:21;;;;;;;1.05;0.95;;;16.70;74.20;;;;;;5108629;28;20114;-62
2021/08/30 12:35:54;;;;;;;1.83;0.93;;;16.60;74.10;;;;;;5108292;28;20031;-68
2021/08/30 12:38:23;;;;;;;1.02;0.90;;;16.60;74.20;;;;;;5070204;28;20416;-67
2021/08/30 12:40:56;;;;;;;2.90;1.38;;;16.60;74.20;;;;;;5102156;28;20040;-68
2021/08/30 12:43:25;;;;;;;1.85;0.90;;;16.60;73.80;;;;;;5105944;28;20504;-68
2021/08/30 12:45:54;;;;;;;1.58;0.90;;;16.60;74.50;;;;;;5115282;28;20088;-68
2021/08/30 12:48:21;;;;;;;2.58;1.10;;;16.60;74.40;;;;;;5115409;28;20026;-63
2021/08/30 12:50:50;;;;;;;1.83;1.20;;;16.60;74.50;;;;;;5109287;28;20028;-64
2021/08/30 12:53:41;;;;;;;2.78;1.20;;;16.50;74.30;;;;;;5093155;28;20047;-62
2021/08/30 12:56:09;;;;;;;1.38;1.10;;;16.60;74.30;;;;;;5100502;28;20138;-69
2021/08/30 12:58:41;;;;;;;1.65;0.95;;;16.50;74.40;;;;;;5115059;28;20024;-70
2021/08/30 13:01:08;;;;;;;2.00;1.23;;;16.50;74.50;;;;;;5095765;28;20095;-72
2021/08/30 13:03:36;;;;;;;3.47;1.67;;;16.50;74.50;;;;;;5094583;28;20035;-68
2021/08/30 13:06:04;;;;;;;2.72;1.40;;;16.50;74.70;;;;;;5094054;28;20118;-62
2021/08/30 13:08:32;;;;;;;1.50;1.10;;;16.50;74.70;;;;;;5092450;28;20027;-62
2021/08/30 13:11:00;;;;;;;2.72;1.08;;;16.50;74.60;;;;;;5091909;28;20111;-67
2021/08/30 13:13:27;;;;;;;2.55;1.20;;;16.40;74.70;;;;;;5093053;28;20170;-66